createdAt,value
2023-04-18T00:01:55.690Z,100848.87
2023-04-18T00:04:41.872Z,100848.23
2023-04-18T00:07:31.270Z,100847.68
2023-04-18T00:10:16.841Z,100851.52
2023-04-18T00:13:03.662Z,100852.75
2023-04-18T00:15:49.266Z,100851.05
2023-04-18T00:18:37.180Z,100848.67
2023-04-18T00:21:25.222Z,100846.86
2023-04-18T00:24:11.462Z,100848.09
2023-04-18T00:26:56.789Z,100847.36
2023-04-18T00:29:42.405Z,100851.69
2023-04-18T00:32:28.172Z,100848.88
2023-04-18T00:35:13.552Z,100838.06
2023-04-18T00:37:59.316Z,100844.98
2023-04-18T00:40:44.598Z,100844.85
2023-04-18T00:43:32.226Z,100847.64
2023-04-18T00:46:17.729Z,100847.45
2023-04-18T00:49:25.407Z,100847.26
2023-04-18T00:52:15.293Z,100843.45
2023-04-18T00:55:03.579Z,100839.50
2023-04-18T00:57:51.165Z,100840.84
2023-04-18T01:00:37.259Z,100836.42
2023-04-18T01:03:24.440Z,100834.73
2023-04-18T01:06:10.869Z,100839.33
2023-04-18T01:08:58.202Z,100836.36
2023-04-18T01:11:43.158Z,100835.17
2023-04-18T01:14:28.330Z,100831.42
2023-04-18T01:17:13.202Z,100832.73
2023-04-18T01:20:01.578Z,100833.51
2023-04-18T01:22:47.400Z,100831.09
2023-04-18T01:25:34.549Z,100836.14
2023-04-18T01:28:24.189Z,100838.81
2023-04-18T01:31:10.085Z,100842.23
2023-04-18T01:33:55.699Z,100838.50
2023-04-18T01:36:41.391Z,100841.19
2023-04-18T01:39:28.421Z,100841.19
2023-04-18T01:42:13.774Z,100836.45
2023-04-18T01:44:59.612Z,100838.22
2023-04-18T01:47:45.776Z,100837.05
2023-04-18T01:50:31.174Z,100839.59
2023-04-18T01:53:17.706Z,100838.11
2023-04-18T01:56:02.955Z,100837.79
2023-04-18T01:58:48.297Z,100835.65
2023-04-18T02:01:34.180Z,100838.95
2023-04-18T02:04:19.916Z,100838.94
2023-04-18T02:07:05.642Z,100835.66
2023-04-18T02:09:50.899Z,100831.02
2023-04-18T02:12:36.494Z,100837.70
2023-04-18T02:15:24.341Z,100832.29
2023-04-18T02:21:12.948Z,100835.49
2023-04-18T02:23:59.058Z,100831.65
2023-04-18T02:26:44.749Z,100832.39
2023-04-18T02:30:00.572Z,100832.67
2023-04-18T02:32:46.307Z,100830.89
2023-04-18T02:35:32.158Z,100834.20
2023-04-18T02:38:17.126Z,100830.33
2023-04-18T02:41:02.505Z,100833.63
2023-04-18T02:43:48.600Z,100831.19
2023-04-18T02:46:42.026Z,100833.33
2023-04-18T02:49:27.435Z,100834.13
2023-04-18T02:52:12.503Z,100833.27
2023-04-18T02:54:57.776Z,100832.20
2023-04-18T02:57:43.161Z,100835.82
2023-04-18T03:00:28.842Z,100838.31
2023-04-18T03:03:14.156Z,100843.63
2023-04-18T03:05:59.897Z,100843.17
2023-04-18T03:08:45.477Z,100840.05
2023-04-18T03:11:30.869Z,100839.74
2023-04-18T03:14:16.343Z,100839.20
2023-04-18T03:17:02.112Z,100838.71
2023-04-18T03:19:51.806Z,100838.39
2023-04-18T03:25:53.278Z,100834.79
2023-04-18T03:28:39.112Z,100831.73
2023-04-18T03:31:24.589Z,100835.73
2023-04-18T03:34:10.466Z,100838.48
2023-04-18T03:36:56.246Z,100835.21
2023-04-18T03:39:41.917Z,100834.01
2023-04-18T03:42:27.507Z,100833.30
2023-04-18T03:45:13.091Z,100835.35
2023-04-18T03:47:58.909Z,100839.85
2023-04-18T03:50:44.650Z,100838.80
2023-04-18T03:53:30.480Z,100838.16
2023-04-18T03:56:16.130Z,100835.08
2023-04-18T03:59:01.496Z,100836.07
2023-04-18T04:01:47.123Z,100843.04
2023-04-18T04:04:33.024Z,100838.11
2023-04-18T04:07:19.002Z,100842.78
2023-04-18T04:10:10.591Z,100845.20
2023-04-18T04:12:56.063Z,100845.04
2023-04-18T04:15:41.253Z,100845.85
2023-04-18T04:18:31.096Z,100850.25
2023-04-18T04:21:17.629Z,100853.38
2023-04-18T04:24:07.126Z,100856.98
2023-04-18T04:26:59.121Z,100858.09
2023-04-18T04:29:44.409Z,100860.00
2023-04-18T04:32:29.812Z,100860.36
2023-04-18T04:35:15.886Z,100861.14
2023-04-18T04:38:01.341Z,100860.51
2023-04-18T04:40:46.937Z,100863.62
2023-04-18T04:43:35.894Z,100866.16
2023-04-18T04:46:23.012Z,100869.73
2023-04-18T04:49:09.208Z,100872.09
2023-04-18T04:51:54.588Z,100873.48
2023-04-18T04:54:40.344Z,100875.15
2023-04-18T04:57:26.067Z,100873.08
2023-04-18T05:00:15.939Z,100875.67
2023-04-18T05:03:02.455Z,100875.14
2023-04-18T05:05:48.542Z,100880.31
2023-04-18T05:08:37.515Z,100881.68
2023-04-18T05:11:23.488Z,100878.16
2023-04-18T05:14:09.283Z,100878.91
2023-04-18T05:16:56.366Z,100882.29
2023-04-18T05:19:44.284Z,100882.27
2023-04-18T05:22:30.799Z,100884.16
2023-04-18T05:25:16.429Z,100886.39
2023-04-18T05:28:04.563Z,100890.94
2023-04-18T05:34:06.312Z,100892.21
2023-04-18T05:36:52.302Z,100883.98
2023-04-18T05:39:38.164Z,100894.05
2023-04-18T05:42:23.606Z,100900.90
2023-04-18T05:45:11.770Z,100898.84
2023-04-18T05:47:57.471Z,100899.23
2023-04-18T05:50:43.119Z,100897.77
2023-04-18T05:53:28.901Z,100898.28
2023-04-18T05:56:14.688Z,100898.48
2023-04-18T05:59:00.372Z,100897.09
2023-04-18T06:01:46.160Z,100900.87
2023-04-18T06:04:31.509Z,100906.56
2023-04-18T06:07:18.241Z,100904.25
2023-04-18T06:10:09.110Z,100906.17
2023-04-18T06:12:54.727Z,100904.84
2023-04-18T06:15:40.798Z,100905.97
2023-04-18T06:18:26.112Z,100907.05
2023-04-18T06:21:13.032Z,100908.95
2023-04-18T06:23:58.507Z,100910.69
2023-04-18T06:26:43.978Z,100911.86
2023-04-18T06:29:33.262Z,100915.77
2023-04-18T06:32:18.653Z,100916.96
2023-04-18T06:35:05.330Z,100920.09
2023-04-18T06:37:52.551Z,100923.83
2023-04-18T06:40:38.030Z,100925.29
2023-04-18T06:43:23.810Z,100932.33
2023-04-18T06:46:09.407Z,100930.94
2023-04-18T06:48:55.082Z,100937.06
2023-04-18T06:51:40.932Z,100936.92
2023-04-18T06:54:27.060Z,100940.08
2023-04-18T06:57:15.026Z,100943.19
2023-04-18T07:00:00.481Z,100946.59
2023-04-18T07:02:49.696Z,100950.16
2023-04-18T07:05:37.780Z,100948.02
2023-04-18T07:08:23.363Z,100951.45
2023-04-18T07:11:09.050Z,100951.63
2023-04-18T07:13:55.254Z,100956.25
2023-04-18T07:16:40.770Z,100952.88
2023-04-18T07:19:26.536Z,100953.14
2023-04-18T07:22:12.061Z,100951.61
2023-04-18T07:25:00.735Z,100950.23
2023-04-18T07:27:47.568Z,100954.48
2023-04-18T07:30:41.874Z,100958.75
2023-04-18T07:33:36.909Z,100959.20
2023-04-18T07:36:22.740Z,100961.83
2023-04-18T07:39:11.744Z,100966.96
2023-04-18T07:41:57.480Z,100959.91
2023-04-18T07:44:44.190Z,100962.31
2023-04-18T07:47:30.645Z,100965.15
2023-04-18T07:50:17.501Z,100973.55
2023-04-18T07:53:03.101Z,100971.20
2023-04-18T07:55:51.785Z,100972.23
2023-04-18T08:01:48.162Z,100974.23
2023-04-18T08:04:33.930Z,100978.37
2023-04-18T08:07:19.670Z,100978.77
2023-04-18T08:10:07.263Z,100985.52
2023-04-18T08:12:53.288Z,100988.05
2023-04-18T08:15:43.201Z,100986.74
2023-04-18T08:18:29.688Z,100991.28
2023-04-18T08:21:15.281Z,100997.64
2023-04-18T08:24:00.840Z,100996.02
2023-04-18T08:26:46.173Z,100994.02
2023-04-18T08:29:31.760Z,100999.78
2023-04-18T08:32:17.047Z,101000.47
2023-04-18T08:35:05.390Z,101004.40
2023-04-18T08:37:50.865Z,101006.58
2023-04-18T08:40:37.954Z,101008.52
2023-04-18T08:43:26.633Z,101009.20
2023-04-18T08:46:11.805Z,101008.48
2023-04-18T08:48:59.943Z,101008.45
2023-04-18T08:51:58.639Z,101008.64
2023-04-18T08:54:48.489Z,101008.93
2023-04-18T08:57:35.894Z,101010.89
2023-04-18T09:00:30.582Z,101016.42
2023-04-18T09:03:16.063Z,101011.61
2023-04-18T09:06:18.518Z,101012.92
2023-04-18T09:09:04.908Z,101010.51
2023-04-18T09:11:55.384Z,101011.11
2023-04-18T09:14:46.190Z,101008.27
2023-04-18T09:17:50.114Z,101010.82
2023-04-18T09:20:42.080Z,101007.19
2023-04-18T09:23:27.313Z,101008.33
2023-04-18T09:26:13.482Z,101009.84
2023-04-18T09:28:58.615Z,101010.05
2023-04-18T09:32:02.130Z,101004.02
2023-04-18T09:34:47.419Z,101002.52
2023-04-18T09:37:33.808Z,101004.35
2023-04-18T09:40:20.287Z,101005.66
2023-04-18T09:43:21.290Z,101001.80
2023-04-18T09:46:12.125Z,100998.10
2023-04-18T09:48:57.662Z,101004.31
2023-04-18T09:51:45.617Z,101008.89
2023-04-18T09:54:37.806Z,101009.00
2023-04-18T09:57:31.451Z,101012.96
2023-04-18T10:00:30.665Z,101014.85
2023-04-18T10:03:17.934Z,101010.11
2023-04-18T10:06:03.974Z,101011.61
2023-04-18T10:09:13.022Z,101011.98
2023-04-18T10:12:02.260Z,101008.88
2023-04-18T10:14:49.686Z,101008.10
2023-04-18T10:18:03.468Z,101008.74
2023-04-18T10:20:54.543Z,101009.02
2023-04-18T10:23:40.434Z,101011.31
2023-04-18T10:26:49.790Z,101009.98
2023-04-18T10:55:39.408Z,100990.05
2023-04-18T10:58:25.936Z,100988.12
2023-04-18T11:01:21.929Z,100984.42
2023-04-18T11:04:13.149Z,100976.67
2023-04-18T11:07:07.302Z,100974.97
2023-04-18T11:19:26.242Z,100977.08
2023-04-18T11:22:14.901Z,100977.30
2023-04-18T11:25:07.948Z,100976.81
2023-04-18T11:28:28.084Z,100977.58
2023-04-18T11:31:15.771Z,100982.36
2023-04-18T11:34:02.181Z,100978.80
2023-04-18T11:36:51.957Z,100980.31
2023-04-18T11:39:42.966Z,100979.04
2023-04-18T11:42:35.511Z,100978.27
2023-04-18T11:45:21.297Z,100979.11
2023-04-18T11:48:06.713Z,100973.48
2023-04-18T11:50:52.450Z,100979.09
2023-04-18T11:53:40.282Z,100980.46
2023-04-18T11:56:25.767Z,100978.73
2023-04-18T11:59:11.456Z,100977.28
2023-04-18T12:02:14.674Z,100975.42
2023-04-18T12:05:02.608Z,100979.40
2023-04-18T12:07:48.915Z,100977.45
2023-04-18T12:10:35.901Z,100981.60
2023-04-18T12:13:27.400Z,100981.64
2023-04-18T12:16:12.630Z,100982.24
2023-04-18T12:19:08.821Z,100979.51
2023-04-18T12:22:00.236Z,100975.23
2023-04-18T12:24:49.806Z,100975.58
2023-04-18T12:27:49.011Z,100976.94
2023-04-18T12:30:36.795Z,100969.16
2023-04-18T12:33:23.560Z,100971.89
2023-04-18T12:36:12.513Z,100968.48
2023-04-18T12:38:58.299Z,100965.10
2023-04-18T12:41:43.683Z,100970.63
2023-04-18T12:44:29.283Z,100973.42
2023-04-18T12:47:15.038Z,100976.84
2023-04-18T12:50:00.924Z,100971.56
2023-04-18T12:52:47.333Z,100971.91
2023-04-18T12:55:32.497Z,100969.34
2023-04-18T12:58:22.369Z,100968.17
2023-04-18T13:01:10.840Z,100965.45
2023-04-18T13:04:08.238Z,100964.52
2023-04-18T13:07:15.695Z,100960.02
2023-04-18T13:10:01.219Z,100957.21
2023-04-18T13:12:47.053Z,100956.55
2023-04-18T13:15:32.665Z,100953.52
2023-04-18T13:18:18.460Z,100952.48
2023-04-18T13:21:10.597Z,100950.84
2023-04-18T13:27:20.110Z,100952.04
2023-04-18T13:30:11.175Z,100950.55
2023-04-18T13:32:59.179Z,100950.85
2023-04-18T13:35:45.300Z,100952.48
2023-04-18T13:38:30.983Z,100950.48
2023-04-18T13:41:44.576Z,100953.36
2023-04-18T13:44:30.923Z,100950.40
2023-04-18T13:47:16.399Z,100955.94
2023-04-18T13:50:02.043Z,100953.08
2023-04-18T13:52:48.952Z,100952.16
2023-04-18T13:55:34.842Z,100954.83
2023-04-18T13:58:20.637Z,100950.56
2023-04-18T14:01:05.918Z,100951.83
2023-04-18T14:03:51.873Z,100953.68
2023-04-18T14:06:43.664Z,100957.17
2023-04-18T14:09:29.917Z,100956.56
2023-04-18T14:12:51.302Z,100955.99
2023-04-18T14:19:05.579Z,100957.80
2023-04-18T14:21:51.444Z,100959.73
2023-04-18T14:24:37.241Z,100956.15
2023-04-18T14:27:26.773Z,100953.13
2023-04-18T14:30:16.224Z,100952.90
2023-04-18T14:33:01.488Z,100952.52
2023-04-18T14:35:47.901Z,100953.35
2023-04-18T14:38:33.631Z,100952.31
2023-04-18T14:41:19.859Z,100953.33
2023-04-18T14:44:05.334Z,100955.48
2023-04-18T14:46:51.040Z,100954.82
2023-04-18T14:49:36.985Z,100952.62
2023-04-18T14:55:38.851Z,100949.75
2023-04-18T14:58:27.294Z,100943.58
2023-04-18T15:01:12.697Z,100937.46
2023-04-18T15:04:00.042Z,100936.08
2023-04-18T15:07:09.129Z,100933.59
2023-04-18T15:12:58.279Z,100936.60
2023-04-18T15:15:53.499Z,100932.27
2023-04-18T15:18:38.712Z,100931.46
2023-04-18T15:21:23.867Z,100932.04
2023-04-18T15:24:09.276Z,100932.85
2023-04-18T15:43:20.669Z,100934.73
2023-04-18T15:49:02.002Z,100939.14
2023-04-18T15:55:02.591Z,100941.42
2023-04-18T16:03:55.779Z,100937.37
2023-04-18T16:06:41.002Z,100940.38
2023-04-18T16:09:26.500Z,100942.55
2023-04-18T16:12:11.868Z,100945.17
2023-04-18T16:14:56.961Z,100945.09
2023-04-18T16:17:41.931Z,100943.65
2023-04-18T16:20:27.176Z,100941.35
2023-04-18T16:23:12.283Z,100945.57
2023-04-18T16:28:59.627Z,100943.84
2023-04-18T16:31:44.961Z,100941.77
2023-04-18T16:37:23.333Z,100938.83
2023-04-18T16:40:09.539Z,100944.48
2023-04-18T16:42:54.548Z,100946.48
2023-04-18T16:51:21.481Z,100944.02
2023-04-18T17:00:02.483Z,100947.82
2023-04-18T17:02:48.093Z,100946.88
2023-04-18T17:05:33.426Z,100949.35
2023-04-18T17:08:19.355Z,100947.90
2023-04-18T17:11:04.464Z,100944.87
2023-04-18T17:14:39.009Z,100947.67
2023-04-18T17:17:24.769Z,100946.25
2023-04-18T17:23:40.615Z,100948.52
2023-04-18T17:32:53.609Z,100958.20
2023-04-18T17:35:41.973Z,100956.27
2023-04-18T17:38:27.378Z,100956.25
2023-04-18T17:41:12.491Z,100955.16
2023-04-18T17:43:57.514Z,100951.32
2023-04-18T17:49:33.750Z,100950.11
2023-04-18T17:55:13.122Z,100953.23
2023-04-18T17:58:00.460Z,100947.02
2023-04-18T18:03:53.559Z,100953.42
2023-04-18T18:06:39.200Z,100954.34
2023-04-18T18:12:48.368Z,100954.46
2023-04-18T18:19:01.319Z,100960.67
2023-04-18T18:21:46.751Z,100960.58
2023-04-18T18:24:31.985Z,100956.83
2023-04-18T18:27:19.590Z,100963.36
2023-04-18T18:39:06.327Z,100958.85
2023-04-18T18:41:51.649Z,100959.34
2023-04-18T18:44:37.031Z,100958.05
2023-04-18T18:47:22.063Z,100959.07
2023-04-18T18:50:07.698Z,100958.07
2023-04-18T18:52:53.009Z,100959.35
2023-04-18T18:55:38.449Z,100957.13
2023-04-18T18:58:24.022Z,100959.02
2023-04-18T19:01:36.487Z,100954.38
2023-04-18T19:04:22.339Z,100951.38
2023-04-18T19:12:55.681Z,100949.64
2023-04-18T19:15:40.833Z,100951.99
2023-04-18T19:27:26.682Z,100948.66
2023-04-18T19:33:09.786Z,100949.73
2023-04-18T19:35:55.759Z,100944.73
2023-04-18T19:38:41.094Z,100943.95
2023-04-18T19:41:27.790Z,100943.20
2023-04-18T19:44:12.775Z,100942.00
2023-04-18T19:46:58.087Z,100942.02
2023-04-18T19:56:55.164Z,100935.74
2023-04-18T20:02:34.699Z,100932.38
2023-04-18T20:05:20.406Z,100930.73
2023-04-18T20:29:47.999Z,100911.39
2023-04-18T20:32:34.071Z,100910.73
2023-04-18T20:35:19.530Z,100914.63
2023-04-18T20:38:06.580Z,100914.55
2023-04-18T20:46:35.410Z,100913.71
2023-04-18T20:53:11.381Z,100909.15
2023-04-18T20:55:56.488Z,100903.63
2023-04-18T21:08:03.767Z,100897.10
2023-04-18T21:10:49.167Z,100895.70
2023-04-18T21:13:34.470Z,100894.45
2023-04-18T21:16:20.616Z,100894.20
2023-04-18T21:28:30.433Z,100887.52
2023-04-18T21:34:31.399Z,100881.52
2023-04-18T22:11:38.169Z,100855.96
2023-04-18T22:20:41.509Z,100844.89
2023-04-18T22:23:27.216Z,100837.41
2023-04-18T22:37:57.815Z,100831.74
2023-04-18T22:40:43.125Z,100827.75
2023-04-18T22:43:28.326Z,100826.27
2023-04-18T22:52:24.178Z,100814.81
2023-04-18T23:04:41.606Z,100799.29
2023-04-18T23:11:10.650Z,100793.57
2023-04-18T23:16:56.821Z,100795.29
2023-04-18T23:19:42.254Z,100788.85
2023-04-18T23:22:27.780Z,100788.64
2023-04-18T23:31:56.244Z,100772.89
2023-04-18T23:44:27.048Z,100758.90
2023-04-18T23:56:29.465Z,100745.34
